Terminal Aerodrome Forecast
Issued by NWS

Current Version | Previous Version | Text Only | Print | Product List | Glossary On
Versions: 1 2 3 4 5 6 7 8 9 10 11 12 13
430
FTUS46 KSGX 201726
TAFCRQ
TAF
KCRQ 201726Z 2018/2118 VRB05KT P6SM SKC
     FM201900 27009KT P6SM SKC
     FM210200 VRB04KT P6SM SCT012
     FM210800 VRB04KT P6SM BKN008
     FM211000 VRB04KT 3SM BR BKN004
     FM211430 VRB03KT P6SM FEW007=

USA.gov is the U.S. government's official web portal to all federal, state and local government web resources and services.